createdAt,value
2019-05-02T00:02:04.837Z,10.13
2019-05-02T00:04:33.284Z,11.07
2019-05-02T00:07:09.239Z,10.93
2019-05-02T00:09:47.117Z,10.40
2019-05-02T00:12:13.183Z,10.67
2019-05-02T00:14:42.379Z,10.30
2019-05-02T00:17:11.175Z,9.90
2019-05-02T00:19:40.003Z,10.27
2019-05-02T00:22:12.280Z,10.27
2019-05-02T00:24:41.128Z,9.53
2019-05-02T00:27:09.935Z,9.77
2019-05-02T00:29:38.431Z,9.90
2019-05-02T00:32:06.888Z,9.47
2019-05-02T00:34:35.339Z,10.10
2019-05-02T00:37:03.948Z,9.33
2019-05-02T00:39:32.377Z,9.33
2019-05-02T00:42:12.075Z,10.23
2019-05-02T00:44:30.976Z,9.30
2019-05-02T00:47:01.057Z,10.20
2019-05-02T00:49:30.873Z,9.60
2019-05-02T00:52:01.362Z,10.13
2019-05-02T00:54:29.673Z,9.80
2019-05-02T00:56:58.121Z,9.53
2019-05-02T00:59:27.103Z,9.37
2019-05-02T01:02:05.487Z,9.63
2019-05-02T01:04:35.233Z,9.53
2019-05-02T01:07:04.288Z,8.87
2019-05-02T01:09:33.356Z,9.53
2019-05-02T01:12:03.075Z,9.90
2019-05-02T01:14:33.202Z,10.13
2019-05-02T01:17:02.420Z,10.27
2019-05-02T01:19:30.851Z,10.00
2019-05-02T01:21:59.358Z,10.53
2019-05-02T01:24:27.794Z,10.93
2019-05-02T01:27:04.554Z,10.97
2019-05-02T01:29:37.883Z,10.83
2019-05-02T01:32:17.121Z,10.30
2019-05-02T01:34:56.430Z,9.77
2019-05-02T01:37:42.654Z,11.27
2019-05-02T01:40:12.960Z,10.80
2019-05-02T01:42:44.514Z,10.97
2019-05-02T01:45:12.596Z,10.73
2019-05-02T01:47:41.209Z,9.83
2019-05-02T01:50:09.791Z,10.57
2019-05-02T01:52:38.217Z,10.30
2019-05-02T01:55:08.297Z,10.33
2019-05-02T01:57:40.006Z,11.47
2019-05-02T02:00:09.415Z,10.87
2019-05-02T02:02:38.970Z,10.53
2019-05-02T02:05:08.097Z,9.80
2019-05-02T02:07:37.707Z,10.00
2019-05-02T02:10:07.294Z,10.43
2019-05-02T02:12:35.791Z,10.30
2019-05-02T02:15:05.273Z,10.33
2019-05-02T02:17:33.698Z,10.77
2019-05-02T02:20:03.790Z,10.30
2019-05-02T02:22:39.368Z,10.73
2019-05-02T02:25:09.224Z,11.23
2019-05-02T02:27:37.793Z,11.23
2019-05-02T02:30:09.474Z,11.10
2019-05-02T02:32:37.915Z,10.73
2019-05-02T02:35:10.233Z,11.10
2019-05-02T02:37:37.873Z,10.73
2019-05-02T02:40:06.463Z,10.93
2019-05-02T02:42:34.904Z,10.83
2019-05-02T02:45:06.430Z,10.63
2019-05-02T02:47:34.861Z,10.63
2019-05-02T02:50:05.382Z,10.17
2019-05-02T02:52:37.918Z,10.80
2019-05-02T02:55:05.788Z,11.07
2019-05-02T02:57:34.194Z,10.60
2019-05-02T03:00:07.819Z,10.63
2019-05-02T03:02:32.840Z,9.87
2019-05-02T03:05:03.609Z,11.47
2019-05-02T03:07:32.046Z,11.50
2019-05-02T03:10:06.350Z,11.33
2019-05-02T03:12:36.225Z,10.37
2019-05-02T03:15:04.190Z,10.77
2019-05-02T03:17:32.631Z,10.10
2019-05-02T03:20:03.772Z,11.37
2019-05-02T03:22:34.855Z,11.13
2019-05-02T03:25:01.423Z,10.93
2019-05-02T03:27:37.338Z,10.50
2019-05-02T03:30:00.046Z,10.07
2019-05-02T03:32:34.713Z,9.70
2019-05-02T03:35:00.338Z,9.97
2019-05-02T03:37:28.737Z,9.83
2019-05-02T03:40:00.259Z,10.17
2019-05-02T03:42:27.482Z,10.53
2019-05-02T03:45:04.021Z,10.60
2019-05-02T03:47:26.815Z,10.20
2019-05-02T03:49:55.315Z,10.23
2019-05-02T03:52:23.783Z,10.40
2019-05-02T03:54:52.686Z,9.50
2019-05-02T03:57:32.193Z,10.43
2019-05-02T03:59:52.682Z,9.47
2019-05-02T04:02:21.885Z,9.73
2019-05-02T04:04:54.094Z,10.03
2019-05-02T04:07:24.086Z,9.63
2019-05-02T04:09:52.524Z,10.80
2019-05-02T04:12:21.975Z,10.47
2019-05-02T04:14:55.277Z,9.57
2019-05-02T04:17:21.045Z,10.37
2019-05-02T04:19:50.240Z,10.00
2019-05-02T04:22:18.945Z,9.20
2019-05-02T04:24:53.883Z,10.13
2019-05-02T04:27:18.020Z,9.23
2019-05-02T04:29:46.444Z,9.90
2019-05-02T04:32:14.939Z,9.60
2019-05-02T04:34:48.931Z,14.63
2019-05-02T04:37:13.751Z,14.87
2019-05-02T04:39:42.173Z,10.30
2019-05-02T04:42:16.044Z,10.57
2019-05-02T04:44:52.941Z,10.87
2019-05-02T04:47:16.913Z,10.20
2019-05-02T04:49:41.121Z,10.57
2019-05-02T04:52:12.196Z,10.60
2019-05-02T04:54:39.748Z,10.33
2019-05-02T04:57:08.682Z,11.53
2019-05-02T04:59:39.467Z,10.30
2019-05-02T05:02:09.059Z,10.00
2019-05-02T05:04:42.356Z,9.83
2019-05-02T05:07:09.298Z,9.87
2019-05-02T05:09:39.997Z,10.30
2019-05-02T05:12:08.406Z,9.47
2019-05-02T05:14:41.230Z,9.73
2019-05-02T05:17:08.004Z,10.63
2019-05-02T05:19:37.351Z,10.43
2019-05-02T05:22:08.785Z,10.40
2019-05-02T05:24:41.999Z,10.50
2019-05-02T05:27:08.286Z,10.13
2019-05-02T05:29:37.469Z,10.27
2019-05-02T05:32:09.873Z,9.93
2019-05-02T05:34:37.983Z,10.23
2019-05-02T05:37:09.400Z,9.83
2019-05-02T05:39:38.106Z,10.93
2019-05-02T05:42:08.421Z,11.00
2019-05-02T05:44:37.498Z,11.10
2019-05-02T05:47:07.404Z,11.20
2019-05-02T05:49:37.540Z,10.80
2019-05-02T05:52:07.982Z,10.87
2019-05-02T05:54:41.938Z,10.53
2019-05-02T05:57:12.136Z,10.20
2019-05-02T05:59:39.237Z,9.43
2019-05-02T06:02:13.217Z,11.27
2019-05-02T06:04:38.760Z,9.53
2019-05-02T06:07:07.437Z,10.63
2019-05-02T06:09:35.924Z,10.27
2019-05-02T06:12:04.493Z,10.83
2019-05-02T06:14:34.596Z,9.97
2019-05-02T06:17:03.134Z,10.40
2019-05-02T06:19:31.816Z,10.80
2019-05-02T06:22:00.238Z,11.30
2019-05-02T06:24:28.684Z,11.13
2019-05-02T06:26:57.113Z,10.03
2019-05-02T06:29:25.568Z,11.70
2019-05-02T06:31:55.531Z,10.60
2019-05-02T06:34:23.985Z,10.97
2019-05-02T06:36:52.437Z,10.60
2019-05-02T06:39:20.891Z,11.93
2019-05-02T06:41:52.126Z,11.30
2019-05-02T06:44:24.165Z,12.07
2019-05-02T06:46:49.684Z,11.60
2019-05-02T06:49:18.147Z,12.27
2019-05-02T06:51:51.087Z,11.50
2019-05-02T06:54:20.947Z,12.80
2019-05-02T06:56:47.907Z,11.70
2019-05-02T06:59:18.415Z,12.10
2019-05-02T07:01:47.231Z,12.77
2019-05-02T07:04:17.511Z,11.77
2019-05-02T07:06:58.141Z,12.50
2019-05-02T07:09:19.121Z,12.20
2019-05-02T07:11:56.952Z,12.03
2019-05-02T07:14:18.565Z,12.83
2019-05-02T07:16:54.436Z,11.80
2019-05-02T07:19:27.436Z,12.53
2019-05-02T07:21:59.062Z,12.47
2019-05-02T07:24:25.145Z,12.43
2019-05-02T07:26:56.920Z,12.10
2019-05-02T07:29:24.858Z,11.80
2019-05-02T07:31:53.593Z,12.67
2019-05-02T07:34:22.226Z,12.13
2019-05-02T07:36:50.668Z,12.33
2019-05-02T07:39:19.263Z,12.03
2019-05-02T07:41:47.689Z,11.77
2019-05-02T07:44:16.226Z,12.33
2019-05-02T07:46:51.688Z,11.57
2019-05-02T07:49:14.893Z,12.57
2019-05-02T07:51:43.412Z,11.83
2019-05-02T07:54:11.829Z,11.30
2019-05-02T07:56:40.268Z,11.20
2019-05-02T07:59:08.725Z,10.70
2019-05-02T08:01:37.218Z,10.97
2019-05-02T08:04:11.303Z,11.47
2019-05-02T08:06:40.137Z,11.57
2019-05-02T08:09:09.193Z,11.47
2019-05-02T08:11:38.509Z,10.93
2019-05-02T08:14:07.598Z,12.00
2019-05-02T08:16:36.039Z,11.10
2019-05-02T08:19:07.827Z,11.63
2019-05-02T08:21:36.272Z,10.53
2019-05-02T08:24:05.247Z,10.47
2019-05-02T08:26:53.388Z,11.60
2019-05-02T08:29:23.527Z,11.20
2019-05-02T08:31:52.118Z,11.87
2019-05-02T08:34:22.215Z,11.87
2019-05-02T08:36:52.791Z,11.93
2019-05-02T08:39:25.969Z,11.45
2019-05-02T08:41:56.233Z,11.27
2019-05-02T08:44:21.535Z,10.63
2019-05-02T08:46:51.449Z,10.95
2019-05-02T08:49:20.236Z,10.55
2019-05-02T08:51:48.679Z,11.63
2019-05-02T08:54:17.109Z,10.70
2019-05-02T08:56:45.556Z,11.55
2019-05-02T08:59:14.077Z,10.65
2019-05-02T09:01:44.788Z,11.80
2019-05-02T09:04:12.686Z,10.93
2019-05-02T09:06:41.125Z,10.78
2019-05-02T09:09:09.609Z,11.88
2019-05-02T09:11:38.403Z,11.15
2019-05-02T09:14:06.828Z,11.70
2019-05-02T09:16:35.266Z,12.07
2019-05-02T09:19:03.763Z,10.70
2019-05-02T09:21:35.854Z,10.55
2019-05-02T09:24:02.626Z,10.25
2019-05-02T09:26:36.196Z,10.23
2019-05-02T09:29:05.299Z,10.68
2019-05-02T09:31:32.011Z,9.85
2019-05-02T09:34:02.680Z,10.03
2019-05-02T09:36:32.313Z,10.70
2019-05-02T09:39:02.659Z,9.25
2019-05-02T09:41:34.460Z,10.18
2019-05-02T09:44:02.873Z,11.38
2019-05-02T09:46:32.454Z,11.55
2019-05-02T09:49:02.846Z,11.38
2019-05-02T09:51:32.517Z,10.50
2019-05-02T09:54:02.613Z,10.80
2019-05-02T09:56:32.554Z,10.43
2019-05-02T09:59:22.753Z,11.03
2019-05-02T10:01:34.022Z,9.53
2019-05-02T10:04:04.222Z,9.60
2019-05-02T10:06:34.122Z,10.08
2019-05-02T10:09:04.329Z,9.43
2019-05-02T10:11:32.829Z,10.20
2019-05-02T10:14:02.469Z,9.15
2019-05-02T10:16:31.920Z,9.10
2019-05-02T10:19:09.520Z,9.68
2019-05-02T10:21:31.808Z,10.18
2019-05-02T10:24:01.867Z,9.85
2019-05-02T10:26:32.861Z,11.55
2019-05-02T10:29:02.024Z,10.60
2019-05-02T10:31:35.741Z,10.15
2019-05-02T10:34:02.329Z,12.50
2019-05-02T10:36:32.518Z,11.10
2019-05-02T10:39:01.830Z,10.68
2019-05-02T10:41:33.438Z,10.75
2019-05-02T10:44:02.241Z,10.75
2019-05-02T10:46:37.673Z,10.93
2019-05-02T10:49:09.869Z,10.00
2019-05-02T10:51:41.755Z,12.23
2019-05-02T10:54:08.590Z,11.75
2019-05-02T10:56:37.041Z,11.43
2019-05-02T10:59:05.822Z,11.70
2019-05-02T11:01:35.976Z,13.03
2019-05-02T11:04:06.107Z,12.50
2019-05-02T11:06:37.091Z,11.57
2019-05-02T11:09:09.635Z,12.35
2019-05-02T11:11:38.234Z,12.50
2019-05-02T11:14:08.558Z,11.93
2019-05-02T11:16:42.281Z,13.93
2019-05-02T11:19:13.234Z,12.28
2019-05-02T11:21:53.552Z,11.65
2019-05-02T11:24:14.254Z,11.93
2019-05-02T11:26:42.953Z,12.28
2019-05-02T11:29:12.160Z,12.95
2019-05-02T11:31:42.697Z,13.70
2019-05-02T11:34:12.339Z,14.47
2019-05-02T11:36:42.003Z,13.13
2019-05-02T11:39:17.556Z,12.78
2019-05-02T11:41:42.245Z,13.60
2019-05-02T11:44:12.182Z,13.95
2019-05-02T11:46:43.036Z,12.93
2019-05-02T11:49:12.240Z,14.50
2019-05-02T11:51:42.200Z,14.47
2019-05-02T11:54:12.724Z,14.40
2019-05-02T11:56:48.641Z,13.90
2019-05-02T11:59:14.734Z,13.55
2019-05-02T12:01:56.209Z,14.40
2019-05-02T12:04:16.829Z,13.48
2019-05-02T12:06:43.325Z,13.43
2019-05-02T12:09:13.378Z,12.90
2019-05-02T12:11:41.932Z,14.28
2019-05-02T12:14:12.673Z,12.65
2019-05-02T12:16:40.569Z,15.40
2019-05-02T12:19:12.039Z,15.90
2019-05-02T12:21:39.393Z,14.73
2019-05-02T12:24:07.855Z,15.55
2019-05-02T12:26:36.359Z,13.98
2019-05-02T12:29:04.880Z,13.78
2019-05-02T12:31:33.948Z,13.40
2019-05-02T12:34:03.446Z,12.07
2019-05-02T12:36:33.353Z,11.00
2019-05-02T12:39:02.568Z,10.78
2019-05-02T12:41:33.031Z,11.93
2019-05-02T12:44:02.271Z,11.53
2019-05-02T12:46:31.774Z,12.35
2019-05-02T12:49:02.593Z,10.98
2019-05-02T12:51:31.975Z,11.70
2019-05-02T12:54:02.257Z,11.10
2019-05-02T12:56:32.377Z,10.90
2019-05-02T12:59:02.400Z,10.03
2019-05-02T13:01:32.954Z,10.50
2019-05-02T13:04:03.172Z,10.45
2019-05-02T13:06:32.781Z,11.85
2019-05-02T13:09:03.153Z,15.25
2019-05-02T13:11:37.025Z,19.05
2019-05-02T13:14:04.090Z,17.05
2019-05-02T13:16:33.491Z,14.85
2019-05-02T13:19:06.087Z,14.60
2019-05-02T13:21:42.516Z,11.97
2019-05-02T13:24:22.913Z,12.73
2019-05-02T13:26:53.876Z,14.10
2019-05-02T13:29:22.479Z,14.40
2019-05-02T13:31:52.598Z,14.07
2019-05-02T13:34:28.820Z,13.70
2019-05-02T13:36:57.955Z,12.70
2019-05-02T13:39:34.102Z,12.68
2019-05-02T13:42:02.662Z,13.35
2019-05-02T13:44:45.093Z,10.55
2019-05-02T13:47:14.481Z,9.50
2019-05-02T13:49:53.261Z,10.03
2019-05-02T13:52:13.172Z,9.60
2019-05-02T13:54:42.612Z,9.93
2019-05-02T13:57:12.160Z,8.80
2019-05-02T13:59:41.691Z,7.67
2019-05-02T14:02:31.761Z,8.15
2019-05-02T14:05:02.136Z,6.78
2019-05-02T14:07:32.475Z,6.42
2019-05-02T14:10:02.576Z,6.95
2019-05-02T14:12:32.751Z,7.00
2019-05-02T14:15:03.062Z,9.78
2019-05-02T14:17:32.635Z,9.43
2019-05-02T14:20:09.991Z,10.18
2019-05-02T14:22:32.517Z,10.88
2019-05-02T14:25:01.861Z,10.28
2019-05-02T14:27:32.075Z,10.53
2019-05-02T14:30:02.454Z,11.03
2019-05-02T14:32:32.768Z,15.18
2019-05-02T14:35:02.730Z,12.68
2019-05-02T14:37:32.081Z,16.80
2019-05-02T14:40:02.428Z,14.15
2019-05-02T14:42:32.264Z,12.23
2019-05-02T14:45:09.077Z,11.70
2019-05-02T14:47:32.589Z,12.70
2019-05-02T14:50:04.157Z,14.73
2019-05-02T14:52:32.666Z,12.07
2019-05-02T14:55:02.938Z,11.08
2019-05-02T14:57:32.652Z,12.13
2019-05-02T15:00:03.244Z,11.55
2019-05-02T15:02:47.516Z,18.17
2019-05-02T15:05:14.011Z,14.78
2019-05-02T15:07:42.434Z,17.23
2019-05-02T15:10:12.650Z,13.88
2019-05-02T15:12:41.917Z,18.02
2019-05-02T15:15:12.307Z,16.75
2019-05-02T15:17:42.008Z,12.45
2019-05-02T15:20:12.883Z,11.70
2019-05-02T15:22:42.486Z,11.30
2019-05-02T15:25:13.548Z,11.30
2019-05-02T15:27:43.049Z,11.50
2019-05-02T15:30:13.147Z,11.60
2019-05-02T15:32:49.226Z,11.88
2019-05-02T15:35:26.576Z,10.80
2019-05-02T15:37:56.598Z,12.40
2019-05-02T15:40:46.751Z,13.95
2019-05-02T15:42:56.640Z,12.35
2019-05-02T15:45:23.893Z,11.95
2019-05-02T15:47:52.751Z,13.20
2019-05-02T15:50:24.543Z,11.43
2019-05-02T15:53:03.233Z,16.40
2019-05-02T15:55:32.431Z,20.65
2019-05-02T15:57:59.155Z,20.12
2019-05-02T16:00:32.780Z,30.55
2019-05-02T16:03:04.249Z,63.52
2019-05-02T16:05:32.037Z,54.88
2019-05-02T16:08:08.229Z,49.60
2019-05-02T16:10:31.589Z,46.98
2019-05-02T16:13:01.030Z,15.25
2019-05-02T16:15:29.616Z,11.28
2019-05-02T16:18:03.982Z,9.85
2019-05-02T16:20:44.275Z,10.03
2019-05-02T16:23:07.104Z,10.00
2019-05-02T16:25:35.542Z,11.33
2019-05-02T16:28:06.081Z,9.78
2019-05-02T16:30:37.055Z,11.05
2019-05-02T16:33:08.019Z,11.03
2019-05-02T16:35:35.873Z,12.40
2019-05-02T16:38:04.479Z,10.10
2019-05-02T16:40:34.887Z,10.75
2019-05-02T16:43:03.068Z,9.67
2019-05-02T16:45:32.779Z,9.53
2019-05-02T16:48:03.255Z,13.43
2019-05-02T16:50:35.118Z,12.13
2019-05-02T16:53:03.495Z,11.13
2019-05-02T16:55:32.758Z,9.63
2019-05-02T16:58:06.302Z,10.67
2019-05-02T17:00:45.499Z,10.07
2019-05-02T17:03:17.441Z,9.57
2019-05-02T17:05:45.822Z,8.73
2019-05-02T17:08:25.083Z,9.07
2019-05-02T17:10:57.971Z,9.80
2019-05-02T17:13:27.440Z,8.60
2019-05-02T17:15:58.270Z,8.33
2019-05-02T17:18:26.704Z,8.87
2019-05-02T17:20:57.000Z,8.90
2019-05-02T17:23:25.313Z,8.50
2019-05-02T17:25:53.765Z,8.90
2019-05-02T17:28:22.405Z,11.80
2019-05-02T17:30:52.508Z,10.83
2019-05-02T17:33:21.763Z,10.03
2019-05-02T17:35:52.225Z,10.03
2019-05-02T17:38:24.946Z,10.17
2019-05-02T17:40:54.127Z,9.90
2019-05-02T17:43:22.521Z,9.98
2019-05-02T17:45:51.218Z,11.40
2019-05-02T17:48:19.734Z,12.27
2019-05-02T17:51:12.237Z,14.60
2019-05-02T17:53:44.516Z,16.57
2019-05-02T17:56:13.032Z,15.40
2019-05-02T17:58:47.465Z,14.90
2019-05-02T18:01:13.112Z,14.50
2019-05-02T18:03:42.498Z,15.50
2019-05-02T18:06:13.298Z,14.23
2019-05-02T18:08:41.741Z,14.40
2019-05-02T18:11:10.414Z,13.27
2019-05-02T18:13:39.537Z,12.10
2019-05-02T18:16:15.190Z,12.43
2019-05-02T18:18:45.440Z,12.80
2019-05-02T18:21:08.368Z,13.27
2019-05-02T18:23:36.794Z,12.90
2019-05-02T18:26:06.455Z,13.13
2019-05-02T18:28:46.055Z,11.65
2019-05-02T18:31:05.941Z,11.83
2019-05-02T18:33:36.056Z,12.17
2019-05-02T18:36:04.911Z,12.63
2019-05-02T18:38:33.377Z,10.57
2019-05-02T18:41:05.963Z,10.47
2019-05-02T18:43:36.170Z,13.13
2019-05-02T18:46:06.038Z,11.10
2019-05-02T18:48:36.532Z,9.53
2019-05-02T18:51:02.861Z,8.67
2019-05-02T18:53:32.685Z,7.47
2019-05-02T18:56:03.463Z,6.43
2019-05-02T18:58:32.008Z,6.87
2019-05-02T19:01:00.582Z,7.10
2019-05-02T19:03:29.068Z,8.30
2019-05-02T19:05:58.515Z,7.37
2019-05-02T19:08:30.898Z,7.60
2019-05-02T19:11:06.015Z,7.90
2019-05-02T19:13:29.937Z,8.57
2019-05-02T19:15:58.149Z,8.27
2019-05-02T19:18:26.665Z,7.63
2019-05-02T19:20:59.550Z,8.00
2019-05-02T19:23:28.098Z,7.33
2019-05-02T19:25:56.711Z,7.47
2019-05-02T19:28:34.711Z,6.77
2019-05-02T19:31:06.733Z,6.90
2019-05-02T19:33:37.365Z,7.33
2019-05-02T19:36:03.915Z,6.67
2019-05-02T19:38:34.772Z,7.03
2019-05-02T19:41:05.568Z,7.20
2019-05-02T19:43:34.982Z,6.57
2019-05-02T19:46:03.269Z,7.20
2019-05-02T19:48:33.036Z,6.30
2019-05-02T19:51:02.438Z,6.17
2019-05-02T19:53:32.294Z,6.43
2019-05-02T19:56:02.845Z,6.30
2019-05-02T19:58:36.857Z,5.90
2019-05-02T20:01:03.072Z,6.47
2019-05-02T20:03:32.290Z,6.47
2019-05-02T20:06:02.470Z,6.00
2019-05-02T20:08:32.612Z,6.50
2019-05-02T20:11:02.392Z,6.73
2019-05-02T20:13:32.704Z,7.30
2019-05-02T20:16:05.763Z,6.80
2019-05-02T20:18:34.838Z,7.00
2019-05-02T20:21:12.087Z,7.13
2019-05-02T20:23:43.019Z,10.20
2019-05-02T20:26:15.238Z,8.13
2019-05-02T20:28:42.246Z,10.63
2019-05-02T20:31:12.330Z,10.90
2019-05-02T20:33:42.886Z,13.23
2019-05-02T20:36:12.401Z,13.73
2019-05-02T20:38:41.794Z,12.97
2019-05-02T20:41:12.571Z,9.60
2019-05-02T20:43:42.937Z,9.53
2019-05-02T20:46:12.161Z,14.13
2019-05-02T20:48:41.848Z,14.57
2019-05-02T20:51:12.193Z,17.77
2019-05-02T20:53:42.110Z,14.13
2019-05-02T20:56:12.334Z,15.10
2019-05-02T20:58:41.940Z,14.73
2019-05-02T21:01:12.376Z,11.33
2019-05-02T21:03:42.796Z,10.17
2019-05-02T21:06:16.098Z,10.23
2019-05-02T21:08:46.184Z,9.90
2019-05-02T21:11:14.722Z,10.67
2019-05-02T21:13:43.227Z,10.20
2019-05-02T21:16:12.399Z,11.00
2019-05-02T21:18:42.266Z,9.70
2019-05-02T21:21:12.700Z,10.77
2019-05-02T21:23:47.146Z,9.70
2019-05-02T21:26:11.340Z,9.23
2019-05-02T21:28:39.769Z,9.77
2019-05-02T21:31:08.213Z,9.23
2019-05-02T21:33:42.651Z,9.47
2019-05-02T21:36:09.283Z,9.60
2019-05-02T21:38:37.730Z,8.90
2019-05-02T21:41:09.289Z,9.43
2019-05-02T21:43:37.751Z,9.63
2019-05-02T21:46:06.262Z,8.77
2019-05-02T21:48:34.795Z,9.30
2019-05-02T21:51:04.863Z,9.60
2019-05-02T21:53:34.949Z,8.57
2019-05-02T21:56:08.254Z,8.67
2019-05-02T21:58:36.759Z,9.07
2019-05-02T22:01:12.980Z,8.20
2019-05-02T22:03:43.055Z,8.53
2019-05-02T22:06:12.193Z,9.33
2019-05-02T22:08:41.742Z,8.60
2019-05-02T22:11:11.983Z,9.07
2019-05-02T22:13:42.254Z,8.83
2019-05-02T22:16:12.760Z,9.67
2019-05-02T22:18:42.628Z,9.33
2019-05-02T22:21:12.279Z,9.23
2019-05-02T22:23:42.533Z,9.80
2019-05-02T22:26:12.756Z,9.93
2019-05-02T22:28:41.367Z,10.50
2019-05-02T22:31:12.139Z,10.70
2019-05-02T22:33:42.131Z,10.80
2019-05-02T22:36:12.276Z,10.70
2019-05-02T22:38:42.399Z,11.10
2019-05-02T22:41:12.546Z,11.07
2019-05-02T22:43:42.110Z,11.30
2019-05-02T22:46:14.053Z,11.67
2019-05-02T22:48:42.700Z,11.90
2019-05-02T22:51:13.525Z,12.37
2019-05-02T22:53:41.707Z,11.30
2019-05-02T22:56:11.836Z,12.53
2019-05-02T22:58:42.131Z,11.90
2019-05-02T23:01:10.751Z,12.43
2019-05-02T23:03:39.286Z,12.63
2019-05-02T23:06:07.747Z,13.27
2019-05-02T23:08:36.455Z,12.07
2019-05-02T23:11:05.048Z,12.20
2019-05-02T23:13:33.492Z,11.43
2019-05-02T23:16:02.905Z,12.30
2019-05-02T23:18:31.912Z,12.57
2019-05-02T23:21:02.124Z,13.00
2019-05-02T23:23:32.743Z,12.67
2019-05-02T23:26:05.189Z,12.40
2019-05-02T23:28:35.277Z,13.93
2019-05-02T23:31:03.790Z,11.70
2019-05-02T23:33:51.619Z,12.80
2019-05-02T23:36:20.202Z,13.23
2019-05-02T23:38:48.621Z,12.87
2019-05-02T23:41:17.075Z,13.60
2019-05-02T23:43:45.561Z,13.10
2019-05-02T23:46:14.010Z,13.53
2019-05-02T23:48:42.437Z,13.30
2019-05-02T23:51:12.117Z,12.90
2019-05-02T23:53:42.228Z,13.57
2019-05-02T23:56:13.030Z,12.50
2019-05-02T23:58:42.609Z,12.97
